Notice: Undefined index: language in /home/u908952976/domains/airgaviota-va.com/public_html/vam/index.php on line 25
AirGaviota-VA

... VIRTUAL FLIGHT...OUR PASSION



 FLIGHT DETAILS
Pilot: GVT462 Peter Voksan Aircraft: REDEYES - ANTONOV AN-2 (32V_64B) AN-2-GAVIOTAAIRVAAEROTAXI Distance: 61NM
Departure MUGM Arrival MUBA Duration 00:40
Validation Validated Type Regular Tail Number GV-AET
ZFW 4085 Block Fuel/Initial FOB 70/0 Flight Fuel 57
Passengers 8 Cargo 1700 Alternate MUMO
Departure Time Cruise Speed 120 Flight Level 5500
Flight Type VFR Aircraft Type AN2 Weight Unit Kg
Date 02-07-2020 Pilot Comments Network IVAO
Crashed No Validator Comments Flight Rating -30

 ROUTE
ROUTE DCT
REMARKS AIRGAVIOTA AEROTAXI VFR TOUR LEG11.
 FLIGHT FAILURES
Crashed OK Beacon off & Engine Running Fail KIAS Above 250 below 10000 FT OK
Lights OFF below 10000 FT OK Lights ON above 10000 FT OK Stall OK
Overspeed OK Flight paused OK Refueling OK
Slew detected OK Taxi & Taxi lights off OK Take off & lights off OK
Landing & lights off OK Landed in not planned airport OK Taxi Speed Fail
Wrong altimeter in Take off OK Wrong altimeter in Landing Fail
 LANDING ANALYSIS
Landing wind 351º/2 kt Landing heading 106
Landing VS: -58.44 ft/min Landing IAS: 50.46 kt
Landing Force G 1.1 G Landing Bank -0.5
Landing Pitch 4.7 Landing Flaps 0
Navigation Lights ON Landing Lights ON
Beacon Lights OFF Strobe Lights OFF
 FLIGHT MAP
 ALTITUDE CHART
 FLIGHT FINANCIAL REPORT
Cargo:1700 .Price per Cargo Unit:12 20,400.00
Number of PAX:8 .Price per PAX:100 800.00
TOTAL 21,200.00
 MAIN EVENTS
DATE EVENTIASALTITUDE
2020-07-02 08:56:47 SIM ACARS version 1.4.1266
2020-07-02 08:56:47 BOARDING266
2020-07-02 08:58:54 STARTING ENGINE 1 366
2020-07-02 08:58:54 BEACON LIGHT OFF & ENGINE ON366
2020-07-02 09:01:33 FLAPS EXTENSION 2 % 066
2020-07-02 09:01:33 FLAPS EXTENSION 3 % 066
2020-07-02 09:01:33 FLAPS EXTENSION 4 % 066
2020-07-02 09:01:33 FLAPS EXTENSION 8 % 066
2020-07-02 09:01:33 FLAPS EXTENSION 9 % 066
2020-07-02 09:01:33 FLAPS EXTENSION 11 % 066
2020-07-02 09:01:33 FLAPS EXTENSION 12 % 066
2020-07-02 09:01:34 FLAPS EXTENSION 15 % 066
2020-07-02 09:01:34 FLAPS EXTENSION 17 % 066
2020-07-02 09:01:34 FLAPS EXTENSION 18 % 066
2020-07-02 09:01:34 FLAPS EXTENSION 22 % 066
2020-07-02 09:01:34 FLAPS EXTENSION 24 % 066
2020-07-02 09:01:35 FLAPS EXTENSION 26 % 066
2020-07-02 09:01:35 FLAPS EXTENSION 28 % 066
2020-07-02 09:01:35 FLAPS EXTENSION 29 % 066
2020-07-02 09:01:35 FLAPS EXTENSION 31 % 166
2020-07-02 09:01:35 FLAPS EXTENSION 33 % 166
2020-07-02 09:01:35 FLAPS EXTENSION 35 % 166
2020-07-02 09:01:35 FLAPS EXTENSION 37 % 166
2020-07-02 09:06:28 TAXI TO THE RWY 1066
2020-07-02 09:09:13 ROLLING FOR TAKE OFF4466
2020-07-02 09:09:16 TAKE OFF4966
2020-07-02 09:09:44 FLAPS EXTENSION 35 % 58274
2020-07-02 09:09:44 FLAPS EXTENSION 34 % 59275
2020-07-02 09:09:45 FLAPS EXTENSION 32 % 59276
2020-07-02 09:09:45 FLAPS EXTENSION 29 % 59277
2020-07-02 09:09:45 FLAPS EXTENSION 28 % 59278
2020-07-02 09:09:45 FLAPS EXTENSION 26 % 59279
2020-07-02 09:09:45 FLAPS EXTENSION 24 % 59280
2020-07-02 09:09:45 FLAPS EXTENSION 22 % 59281
2020-07-02 09:09:46 FLAPS EXTENSION 21 % 59282
2020-07-02 09:09:49 FLAPS EXTENSION 15 % 60310
2020-07-02 09:09:49 FLAPS EXTENSION 13 % 60312
2020-07-02 09:09:49 FLAPS EXTENSION 11 % 60313
2020-07-02 09:09:49 FLAPS EXTENSION 9 % 60315
2020-07-02 09:09:49 FLAPS EXTENSION 8 % 60316
2020-07-02 09:09:50 FLAPS EXTENSION 6 % 60318
2020-07-02 09:09:50 FLAPS EXTENSION 4 % 60320
2020-07-02 09:09:50 FLAPS EXTENSION 2 % 60322
2020-07-02 09:09:50 FLAPS EXTENSION 0 % 60324
2020-07-02 09:09:50 FLAPS EXTENSION 0 % 60327
2020-07-02 09:11:36 CRUISE701200
2020-07-02 09:13:06 CLIMBING631415
2020-07-02 09:13:46 CRUISE611552
2020-07-02 09:14:36 CLIMBING721780
2020-07-02 09:16:56 CRUISE672479
2020-07-02 09:20:56 DESCEND1132370
2020-07-02 09:22:06 CRUISE1062053
2020-07-02 09:23:06 DESCEND1041944
2020-07-02 09:24:56 CRUISE1101728
2020-07-02 09:27:26 CLIMBING951930
2020-07-02 09:28:26 CRUISE952105
2020-07-02 09:30:36 CLIMBING952023
2020-07-02 09:31:06 CRUISE952052
2020-07-02 09:32:56 CLIMBING872227
2020-07-02 09:33:57 CRUISE932274
2020-07-02 09:34:36 CLIMBING942375
2020-07-02 09:35:36 CRUISE1012426
2020-07-02 09:36:16 CLIMBING802603
2020-07-02 09:37:56 CRUISE943142
2020-07-02 09:38:36 CLIMBING923329
2020-07-02 09:39:36 CRUISE1033248
2020-07-02 09:41:26 DESCEND1063108
2020-07-02 09:43:16 CRUISE1012542
2020-07-02 09:44:16 DESCEND1062273
2020-07-02 09:45:57 FLAPS EXTENSION 2 % 671595
2020-07-02 09:45:57 FLAPS EXTENSION 4 % 671593
2020-07-02 09:45:57 FLAPS EXTENSION 6 % 671592
2020-07-02 09:45:58 FLAPS EXTENSION 8 % 671590
2020-07-02 09:45:58 FLAPS EXTENSION 10 % 671589
2020-07-02 09:45:58 FLAPS EXTENSION 12 % 671588
2020-07-02 09:45:58 FLAPS EXTENSION 13 % 671586
2020-07-02 09:45:58 FLAPS EXTENSION 16 % 671585
2020-07-02 09:45:58 FLAPS EXTENSION 18 % 671584
2020-07-02 09:45:58 FLAPS EXTENSION 19 % 661582
2020-07-02 09:45:59 FLAPS EXTENSION 22 % 661581
2020-07-02 09:45:59 FLAPS EXTENSION 23 % 661579
2020-07-02 09:45:59 FLAPS EXTENSION 26 % 661578
2020-07-02 09:45:59 FLAPS EXTENSION 28 % 661577
2020-07-02 09:45:59 FLAPS EXTENSION 29 % 661575
2020-07-02 09:45:59 FLAPS EXTENSION 32 % 661574
2020-07-02 09:46:00 FLAPS EXTENSION 34 % 651573
2020-07-02 09:46:00 FLAPS EXTENSION 37 % 651571
2020-07-02 09:46:00 FLAPS EXTENSION 40 % 651570
2020-07-02 09:46:00 FLAPS EXTENSION 41 % 651569
2020-07-02 09:46:00 FLAPS EXTENSION 44 % 651568
2020-07-02 09:46:01 FLAPS EXTENSION 46 % 641567
2020-07-02 09:46:01 FLAPS EXTENSION 48 % 641566
2020-07-02 09:46:01 FLAPS EXTENSION 50 % 641565
2020-07-02 09:46:02 FLAPS EXTENSION 52 % 621561
2020-07-02 09:46:03 FLAPS EXTENSION 54 % 611560
2020-07-02 09:46:03 FLAPS EXTENSION 56 % 611559
2020-07-02 09:46:03 FLAPS EXTENSION 58 % 611559
2020-07-02 09:46:03 FLAPS EXTENSION 61 % 611557
2020-07-02 09:46:03 FLAPS EXTENSION 62 % 611557
2020-07-02 09:46:03 FLAPS EXTENSION 64 % 611556
2020-07-02 09:46:04 FLAPS EXTENSION 67 % 601555
2020-07-02 09:46:04 FLAPS EXTENSION 67 % 601554
2020-07-02 09:46:15 FLAPS EXTENSION 68 % 611494
2020-07-02 09:46:15 FLAPS EXTENSION 72 % 611493
2020-07-02 09:46:15 FLAPS EXTENSION 74 % 611492
2020-07-02 09:46:16 FLAPS EXTENSION 75 % 611491
2020-07-02 09:46:16 FLAPS EXTENSION 78 % 611491
2020-07-02 09:46:16 FLAPS EXTENSION 80 % 611490
2020-07-02 09:46:16 FLAPS EXTENSION 81 % 611489
2020-07-02 09:46:16 FLAPS EXTENSION 84 % 611489
2020-07-02 09:46:16 FLAPS EXTENSION 86 % 611488
2020-07-02 09:46:17 FLAPS EXTENSION 87 % 611488
2020-07-02 09:46:17 FLAPS EXTENSION 89 % 611488
2020-07-02 09:46:17 FLAPS EXTENSION 91 % 611487
2020-07-02 09:46:17 FLAPS EXTENSION 92 % 611487
2020-07-02 09:46:17 FLAPS EXTENSION 94 % 611487
2020-07-02 09:46:17 FLAPS EXTENSION 95 % 611487
2020-07-02 09:46:26 CRUISE591482
2020-07-02 09:46:39 FLAPS EXTENSION 96 % 591427
2020-07-02 09:46:39 FLAPS EXTENSION 98 % 591425
2020-07-02 09:46:39 FLAPS EXTENSION 100 % 591423
2020-07-02 09:46:47 FLAPS EXTENSION 99 % 591337
2020-07-02 09:46:47 FLAPS EXTENSION 97 % 591336
2020-07-02 09:46:48 FLAPS EXTENSION 95 % 591335
2020-07-02 09:46:48 FLAPS EXTENSION 95 % 591334
2020-07-02 09:46:48 FLAPS EXTENSION 96 % 591332
2020-07-02 09:46:48 FLAPS EXTENSION 98 % 591330
2020-07-02 09:46:48 FLAPS EXTENSION 100 % 591329
2020-07-02 09:46:48 FLAPS EXTENSION 100 % 591327
2020-07-02 09:46:56 DESCEND581273
2020-07-02 09:49:26 CRUISE49379
2020-07-02 09:49:56 DESCEND49223
2020-07-02 09:50:46 CRUISE5055
2020-07-02 09:50:51 LANDING5044
2020-07-02 09:51:12 FLAPS EXTENSION 98 % 2143
2020-07-02 09:51:12 FLAPS EXTENSION 95 % 2043
2020-07-02 09:51:12 FLAPS EXTENSION 93 % 2043
2020-07-02 09:51:13 TAXI TO THE GATE2043
2020-07-02 09:51:13 FLAPS EXTENSION 91 % 2043
2020-07-02 09:51:13 FLAPS EXTENSION 87 % 2043
2020-07-02 09:51:13 FLAPS EXTENSION 85 % 1943
2020-07-02 09:51:13 FLAPS EXTENSION 84 % 1943
2020-07-02 09:51:13 FLAPS EXTENSION 81 % 1943
2020-07-02 09:51:14 FLAPS EXTENSION 79 % 1943
2020-07-02 09:51:14 FLAPS EXTENSION 78 % 1943
2020-07-02 09:51:14 FLAPS EXTENSION 75 % 1843
2020-07-02 09:51:14 FLAPS EXTENSION 74 % 1843
2020-07-02 09:51:14 FLAPS EXTENSION 71 % 1743
2020-07-02 09:51:14 FLAPS EXTENSION 70 % 1743
2020-07-02 09:51:15 FLAPS EXTENSION 67 % 1643
2020-07-02 09:51:15 FLAPS EXTENSION 66 % 1643
2020-07-02 09:51:15 FLAPS EXTENSION 63 % 1543
2020-07-02 09:51:15 FLAPS EXTENSION 61 % 1543
2020-07-02 09:51:15 FLAPS EXTENSION 59 % 1443
2020-07-02 09:51:15 FLAPS EXTENSION 57 % 1343
2020-07-02 09:51:22 FLAPS EXTENSION 56 % 243
2020-07-02 09:51:22 FLAPS EXTENSION 53 % 243
2020-07-02 09:51:22 FLAPS EXTENSION 51 % 243
2020-07-02 09:51:23 FLAPS EXTENSION 50 % 243
2020-07-02 09:51:23 FLAPS EXTENSION 48 % 243
2020-07-02 09:51:23 FLAPS EXTENSION 46 % 243
2020-07-02 09:51:23 FLAPS EXTENSION 44 % 143
2020-07-02 09:51:23 FLAPS EXTENSION 43 % 143
2020-07-02 09:51:23 FLAPS EXTENSION 38 % 143
2020-07-02 09:51:24 FLAPS EXTENSION 36 % 143
2020-07-02 09:51:24 FLAPS EXTENSION 33 % 143
2020-07-02 09:51:24 FLAPS EXTENSION 31 % 043
2020-07-02 09:51:24 FLAPS EXTENSION 30 % 043
2020-07-02 09:51:24 FLAPS EXTENSION 27 % 043
2020-07-02 09:51:24 FLAPS EXTENSION 25 % 043
2020-07-02 09:51:25 FLAPS EXTENSION 23 % 043
2020-07-02 09:51:25 FLAPS EXTENSION 22 % 043
2020-07-02 09:51:25 FLAPS EXTENSION 19 % 043
2020-07-02 09:51:25 FLAPS EXTENSION 18 % 043
2020-07-02 09:51:25 FLAPS EXTENSION 16 % 043
2020-07-02 09:51:25 FLAPS EXTENSION 14 % 043
2020-07-02 09:51:26 FLAPS EXTENSION 12 % 043
2020-07-02 09:51:26 FLAPS EXTENSION 10 % 043
2020-07-02 09:51:26 FLAPS EXTENSION 9 % 043
2020-07-02 09:51:26 FLAPS EXTENSION 6 % 043
2020-07-02 09:51:26 FLAPS EXTENSION 4 % 043
2020-07-02 09:51:26 FLAPS EXTENSION 2 % 043
2020-07-02 09:51:26 FLAPS EXTENSION 0 % 043
2020-07-02 09:51:27 FLAPS EXTENSION 0 % 043
2020-07-02 09:52:35 TAXI SPEED ABOVE 25 KTS2243
2020-07-02 09:52:44 STOPPING ENGINE 1 1144
 ACARS DATA
DATE IASGSALTITUDEFUEL CONSUMED OATFLIGHT STATUS
2020-07-02 08:57:472065125BOARDING
2020-07-02 08:58:472065125BOARDING
2020-07-02 08:59:472065225BOARDING
2020-07-02 09:00:477565225BOARDING
2020-07-02 09:01:470065325BOARDING
2020-07-02 09:02:470065425BOARDING
2020-07-02 09:03:470065525BOARDING
2020-07-02 09:04:471065625BOARDING
2020-07-02 09:05:471365725BOARDING
2020-07-02 09:06:478865825TAXI TO THE RWY
2020-07-02 09:07:471465925TAXI TO THE RWY
2020-07-02 09:08:4702651025TAXI TO THE RWY
2020-07-02 09:09:4759652931225CLIMBING
2020-07-02 09:10:4763649251423CLIMBING
2020-07-02 09:11:47706912211623CRUISE
2020-07-02 09:12:47646213501722CRUISE
2020-07-02 09:13:47616115551822CRUISE
2020-07-02 09:14:47727418422021CLIMBING
2020-07-02 09:15:47666722172120CLIMBING
2020-07-02 09:16:47676724512320CLIMBING
2020-07-02 09:17:47767625762420CRUISE
2020-07-02 09:18:47878825762520CRUISE
2020-07-02 09:19:47878626292719CRUISE
2020-07-02 09:20:4710810924682820CRUISE
2020-07-02 09:21:4711211220472921DESCEND
2020-07-02 09:22:4710210220143121CRUISE
2020-07-02 09:23:4710510718833221DESCEND
2020-07-02 09:24:4711111217523321DESCEND
2020-07-02 09:25:4710010216553522CRUISE
2020-07-02 09:26:47939518623621CRUISE
2020-07-02 09:27:47959519473821CLIMBING
2020-07-02 09:28:479910120993921CRUISE
2020-07-02 09:29:4710410619344121CRUISE
2020-07-02 09:30:47939620484221CLIMBING
2020-07-02 09:31:47959520734321CRUISE
2020-07-02 09:32:47909121134521CRUISE
2020-07-02 09:33:47919222774620CLIMBING
2020-07-02 09:34:47959524434820CLIMBING
2020-07-02 09:35:4710110024024920CRUISE
2020-07-02 09:36:47767529585119CLIMBING
2020-07-02 09:37:47919131595218CLIMBING
2020-07-02 09:38:47949433115418CLIMBING
2020-07-02 09:39:4710110232805518CRUISE
2020-07-02 09:40:47989932705618CRUISE
2020-07-02 09:41:4710610730805819DESCEND
2020-07-02 09:42:4710410526805919DESCEND
2020-07-02 09:43:4710010025086020CRUISE
2020-07-02 09:44:47949321226121DESCEND
2020-07-02 09:45:47757616956222DESCEND
2020-07-02 09:46:47585913416323CRUISE
2020-07-02 09:47:4755599596423DESCEND
2020-07-02 09:48:4753556276624DESCEND
2020-07-02 09:49:4749552746725CRUISE
2020-07-02 09:50:474955516825CRUISE
2020-07-02 09:51:4700426925TAXI TO THE GATE
2020-07-02 09:52:4706427125TAXI TO THE GATE